Northwestern — WDE5199 — position and weather

sailwx.info

Track history (hours):
 
Tides and Currents Weather Stations Pressure Air Temp Water Temp Dewpoint Dewpoint Depression Visibility Wind Speed Wind Dir Waves Ship Positions

Northwestern

Owner: Northwestern LLC, Seattle, WA. More information available from US FCC via Universal Licensing System and Coast Guard Vessel Documentation Center.

Last reported at 2016-Mar-09 01:14 UTC. Time now 2016-May-01 11:48 UTC.
Position N 47°40' W 122°23'.
Warning: this ship's position is 53 days out of date.

Length 38 m; draft 4.3 m.

Type: Fishing. MMSI: 367363350.

Date/timePositionNaut miles runAvg speedWind from/ knotsBaromVisibWave heightAir tempDewpointWater temp
2016-Mar-09 01:14N 47°40' W 122°23'1 0.9
2016-Mar-09 00:34N 47°39' W 122°23'2 2.1
2016-Mar-08 23:34N 47°41' W 122°25'1110.9
2016-Mar-08 22:34N 47°52' W 122°29'2711.0
2016-Mar-08 20:07N 48°11' W 122°56'711.4
2016-Mar-08 19:30N 48°12' W 123°07'1111.3
2016-Mar-08 18:32N 48°12' W 123°23'1010.3
2016-Mar-08 17:33N 48°13' W 123°38'7010.0
2016-Mar-08 10:31N 48°40' W 125°16'1010.7
2016-Mar-08 09:33N 48°44' W 125°31'1110.5
2016-Mar-08 08:33N 48°49' W 125°45'10 9.9
2016-Mar-08 07:33N 48°53' W 125°59'10 9.6
2016-Mar-08 06:29N 48°57' W 126°13'  
Track history (hours):
 
Tides and Currents Weather Stations Pressure Air Temp Water Temp Dewpoint Dewpoint Depression Visibility Wind Speed Wind Dir Waves Ship Positions

Northwestern

Owner: Northwestern LLC, Seattle, WA. More information available from US FCC via Universal Licensing System and Coast Guard Vessel Documentation Center.

Last reported at 2016-Mar-09 01:14 UTC. Time now 2016-May-01 11:48 UTC.
Position N 47°40' W 122°23'.
Warning: this ship's position is 53 days out of date.

Length 38 m; draft 4.3 m.

Type: Fishing. MMSI: 367363350.

Date/timePositionNaut miles runAvg speedWind from/ knotsBaromVisibWave heightAir tempDewpointWater temp
2016-Mar-09 01:14N 47°40' W 122°23'1 0.9
2016-Mar-09 00:34N 47°39' W 122°23'2 2.1
2016-Mar-08 23:34N 47°41' W 122°25'1110.9
2016-Mar-08 22:34N 47°52' W 122°29'2711.0
2016-Mar-08 20:07N 48°11' W 122°56'711.4
2016-Mar-08 19:30N 48°12' W 123°07'1111.3
2016-Mar-08 18:32N 48°12' W 123°23'1010.3
2016-Mar-08 17:33N 48°13' W 123°38'7010.0
2016-Mar-08 10:31N 48°40' W 125°16'1010.7
2016-Mar-08 09:33N 48°44' W 125°31'1110.5
2016-Mar-08 08:33N 48°49' W 125°45'10 9.9
2016-Mar-08 07:33N 48°53' W 125°59'10 9.6
2016-Mar-08 06:29N 48°57' W 126°13'  

Dump ship's entire track history